Upstream stations:
Downstream station:
SHEF ID: CASK1 NF NINNESCAH R AB CHENEY RE, KS
STATION TYPE:
PRECIP STAGE RIV-FLOW DIS-OXY PH CONDUCT AIR-TEMP BAT-LOAD
in ft cfs mg/l su umho/cm F volt
Ccp-Rev Ccp-Rev Ccp-Rev Ccp-Rev Ccp-Rev Ccp-Rev Ccp-Rev Ccp-Rev
(US/Central)
08/29 00:00 0.00 5.65 11 ---- ---- ---- ---- 12.65
08/29 01:00 0.00 5.64 10 ---- ---- ---- ---- 12.65
08/29 02:00 0.00 5.65 11 ---- ---- ---- ---- 12.57
08/29 03:00 0.00 5.65 11 ---- ---- ---- ---- 12.57
08/29 04:00 0.00 5.65 11 ---- ---- ---- ---- 12.57
08/29 05:00 0.00 5.66 12 ---- ---- ---- ---- 12.57
08/29 06:00 0.00 5.66 12 ---- ---- ---- ---- 12.49
08/29 07:00 0.00 5.66 12 ---- ---- ---- ---- 12.49
08/29 08:00 0.00 5.67 13 ---- ---- ---- ---- 12.57
08/29 09:00 0.00 5.67 13 ---- ---- ---- ---- 13.13
08/29 10:00 0.00 5.67 13 ---- ---- ---- ---- 13.53
08/29 11:00 0.37 5.71 16 ---- ---- ---- ---- 13.53
08/29 12:00 0.17 5.75 19 ---- ---- ---- ---- 13.21
08/29 13:00 0.19 5.77 21 ---- ---- ---- ---- 12.89
08/29 14:00 0.11 5.81 25 ---- ---- ---- ---- 12.73
08/29 15:00 0.01 5.84 28 ---- ---- ---- ---- 12.73
08/29 16:00 0.00 5.86 30 ---- ---- ---- ---- 13.05
08/29 17:00 0.00 5.89 33 ---- ---- ---- ---- 13.44
08/29 18:00 0.00 5.90 34 ---- ---- ---- ---- 13.53
08/29 19:00 0.00 5.91 36 ---- ---- ---- ---- 13.44
08/29 20:00 0.00 5.91 36 ---- ---- ---- ---- 13.21
08/29 21:00 0.00 5.89 33 ---- ---- ---- ---- 12.73
08/29 22:00 0.00 5.88 32 ---- ---- ---- ---- 12.65
08/29 23:00 0.00 5.88 32 ---- ---- ---- ---- 12.57